Terminal Aerodrome Forecast
Issued by NWS St Louis, MO

Home | Current Version | Previous Version | Text Only | Print | Product List | Glossary On
Versions: 1 2 3 4 5 6 7 8 9 10 11 12 13 14 15 16 17 18 19 20
000
FTUS43 KLSX 150500
TAFCOU
TAF
KCOU 150530Z 1506/1606 17006KT P6SM BKN250
     FM151200 17006KT P6SM VCSH BKN050
     FM151600 21009KT 5SM -SHRA VCTS BKN040CB
     FM151900 29012KT P6SM VCSH SCT015 BKN040
     FM152300 35012KT P6SM BKN015=

USA.gov is the U.S. government's official web portal to all federal, state and local government web resources and services.